sensor_id;sensor_type;location;lat;lon;timestamp;temperature;humidity
11025;DHT22;22890;51.820;8.682;2023-12-28T00:02:09;9.40;99.90
11025;DHT22;22890;51.820;8.682;2023-12-28T00:04:36;9.30;99.90
11025;DHT22;22890;51.820;8.682;2023-12-28T00:07:03;9.30;99.90
11025;DHT22;22890;51.820;8.682;2023-12-28T00:09:30;9.30;99.90
11025;DHT22;22890;51.820;8.682;2023-12-28T00:11:58;9.20;99.90
11025;DHT22;22890;51.820;8.682;2023-12-28T00:14:25;9.20;99.90
11025;DHT22;22890;51.820;8.682;2023-12-28T00:21:47;9.20;99.90
11025;DHT22;22890;51.820;8.682;2023-12-28T00:24:15;9.20;99.90
11025;DHT22;22890;51.820;8.682;2023-12-28T00:29:10;9.30;99.90
11025;DHT22;22890;51.820;8.682;2023-12-28T00:34:03;9.30;99.90
11025;DHT22;22890;51.820;8.682;2023-12-28T00:43:52;9.10;99.90
11025;DHT22;22890;51.820;8.682;2023-12-28T00:46:20;9.10;99.90
11025;DHT22;22890;51.820;8.682;2023-12-28T00:48:47;9.10;99.90
11025;DHT22;22890;51.820;8.682;2023-12-28T00:51:14;9.10;99.90
11025;DHT22;22890;51.820;8.682;2023-12-28T00:53:41;9.10;99.90
11025;DHT22;22890;51.820;8.682;2023-12-28T00:56:09;9.10;99.90
11025;DHT22;22890;51.820;8.682;2023-12-28T00:58:39;9.00;99.90
11025;DHT22;22890;51.820;8.682;2023-12-28T01:01:06;9.00;99.90
11025;DHT22;22890;51.820;8.682;2023-12-28T01:06:00;8.90;99.90
11025;DHT22;22890;51.820;8.682;2023-12-28T01:10:54;9.00;99.90
11025;DHT22;22890;51.820;8.682;2023-12-28T01:15:48;8.90;99.90
11025;DHT22;22890;51.820;8.682;2023-12-28T01:20:42;8.90;99.90
11025;DHT22;22890;51.820;8.682;2023-12-28T01:28:03;8.90;99.90
11025;DHT22;22890;51.820;8.682;2023-12-28T01:30:31;9.00;99.90
11025;DHT22;22890;51.820;8.682;2023-12-28T01:35:25;8.80;99.90
11025;DHT22;22890;51.820;8.682;2023-12-28T01:40:18;8.80;99.90
11025;DHT22;22890;51.820;8.682;2023-12-28T01:42:45;8.80;99.90
11025;DHT22;22890;51.820;8.682;2023-12-28T01:45:12;8.90;99.90
11025;DHT22;22890;51.820;8.682;2023-12-28T01:47:39;9.00;99.90
11025;DHT22;22890;51.820;8.682;2023-12-28T01:52:34;9.00;99.90
11025;DHT22;22890;51.820;8.682;2023-12-28T01:55:01;9.00;99.90
11025;DHT22;22890;51.820;8.682;2023-12-28T01:59:57;9.00;99.90
11025;DHT22;22890;51.820;8.682;2023-12-28T02:02:28;9.00;99.90
11025;DHT22;22890;51.820;8.682;2023-12-28T02:04:55;9.00;99.90
11025;DHT22;22890;51.820;8.682;2023-12-28T02:07:24;9.00;99.90
11025;DHT22;22890;51.820;8.682;2023-12-28T02:09:51;9.00;99.90
11025;DHT22;22890;51.820;8.682;2023-12-28T02:12:18;8.90;99.90
11025;DHT22;22890;51.820;8.682;2023-12-28T02:14:45;9.00;99.90
11025;DHT22;22890;51.820;8.682;2023-12-28T02:17:20;8.90;99.90
11025;DHT22;22890;51.820;8.682;2023-12-28T02:19:56;9.00;99.90
11025;DHT22;22890;51.820;8.682;2023-12-28T02:22:25;9.00;99.90
11025;DHT22;22890;51.820;8.682;2023-12-28T02:25:11;9.10;99.90
11025;DHT22;22890;51.820;8.682;2023-12-28T02:27:41;9.10;99.90
11025;DHT22;22890;51.820;8.682;2023-12-28T02:30:10;9.00;99.90
11025;DHT22;22890;51.820;8.682;2023-12-28T02:35:34;9.00;99.90
11025;DHT22;22890;51.820;8.682;2023-12-28T02:38:07;9.10;99.90
11025;DHT22;22890;51.820;8.682;2023-12-28T02:40:40;9.10;99.90
11025;DHT22;22890;51.820;8.682;2023-12-28T02:43:08;9.00;99.90
11025;DHT22;22890;51.820;8.682;2023-12-28T02:45:36;9.00;99.90
11025;DHT22;22890;51.820;8.682;2023-12-28T02:48:04;9.00;99.90
11025;DHT22;22890;51.820;8.682;2023-12-28T02:50:32;9.00;99.90
11025;DHT22;22890;51.820;8.682;2023-12-28T02:53:00;9.10;99.90
11025;DHT22;22890;51.820;8.682;2023-12-28T02:55:27;9.00;99.90
11025;DHT22;22890;51.820;8.682;2023-12-28T02:57:56;9.00;99.90
11025;DHT22;22890;51.820;8.682;2023-12-28T03:00:26;9.00;99.90
11025;DHT22;22890;51.820;8.682;2023-12-28T03:02:54;9.00;99.90
11025;DHT22;22890;51.820;8.682;2023-12-28T03:05:21;9.10;99.90
11025;DHT22;22890;51.820;8.682;2023-12-28T03:07:48;9.10;99.90
11025;DHT22;22890;51.820;8.682;2023-12-28T03:10:15;9.10;99.90
11025;DHT22;22890;51.820;8.682;2023-12-28T03:12:42;9.10;99.90
11025;DHT22;22890;51.820;8.682;2023-12-28T03:15:09;9.10;99.90
11025;DHT22;22890;51.820;8.682;2023-12-28T03:17:36;9.20;99.90
11025;DHT22;22890;51.820;8.682;2023-12-28T03:20:05;9.30;99.90
11025;DHT22;22890;51.820;8.682;2023-12-28T03:22:32;9.10;99.90
11025;DHT22;22890;51.820;8.682;2023-12-28T03:27:26;9.10;99.90
11025;DHT22;22890;51.820;8.682;2023-12-28T03:29:54;9.10;99.90
11025;DHT22;22890;51.820;8.682;2023-12-28T03:37:16;9.20;99.90
11025;DHT22;22890;51.820;8.682;2023-12-28T03:42:10;9.20;99.90
11025;DHT22;22890;51.820;8.682;2023-12-28T03:44:37;9.20;99.90
11025;DHT22;22890;51.820;8.682;2023-12-28T03:51:58;9.20;99.90
11025;DHT22;22890;51.820;8.682;2023-12-28T03:54:25;9.20;99.90
11025;DHT22;22890;51.820;8.682;2023-12-28T03:56:51;9.20;99.90
11025;DHT22;22890;51.820;8.682;2023-12-28T03:59:18;9.20;99.90
11025;DHT22;22890;51.820;8.682;2023-12-28T04:01:45;9.20;99.90
11025;DHT22;22890;51.820;8.682;2023-12-28T04:06:39;9.20;99.90
11025;DHT22;22890;51.820;8.682;2023-12-28T04:11:35;9.30;99.90
11025;DHT22;22890;51.820;8.682;2023-12-28T04:16:29;9.20;99.90
11025;DHT22;22890;51.820;8.682;2023-12-28T04:18:57;9.20;99.90
11025;DHT22;22890;51.820;8.682;2023-12-28T04:26:18;9.20;99.90
11025;DHT22;22890;51.820;8.682;2023-12-28T04:33:43;9.20;99.90
11025;DHT22;22890;51.820;8.682;2023-12-28T04:36:10;9.20;99.90
11025;DHT22;22890;51.820;8.682;2023-12-28T04:38:37;9.20;99.90
11025;DHT22;22890;51.820;8.682;2023-12-28T04:41:05;9.00;99.90
11025;DHT22;22890;51.820;8.682;2023-12-28T04:46:04;9.10;99.90
11025;DHT22;22890;51.820;8.682;2023-12-28T04:48:31;9.20;99.90
11025;DHT22;22890;51.820;8.682;2023-12-28T04:51:02;9.20;99.90
11025;DHT22;22890;51.820;8.682;2023-12-28T04:55:56;9.20;99.90
11025;DHT22;22890;51.820;8.682;2023-12-28T05:00:49;9.20;99.90
11025;DHT22;22890;51.820;8.682;2023-12-28T05:03:18;9.20;99.90
11025;DHT22;22890;51.820;8.682;2023-12-28T05:05:45;9.10;99.90
11025;DHT22;22890;51.820;8.682;2023-12-28T05:10:42;9.20;99.90
11025;DHT22;22890;51.820;8.682;2023-12-28T05:15:36;9.20;99.90
11025;DHT22;22890;51.820;8.682;2023-12-28T05:18:03;9.20;99.90
11025;DHT22;22890;51.820;8.682;2023-12-28T05:22:58;9.10;99.90
11025;DHT22;22890;51.820;8.682;2023-12-28T05:25:25;9.10;99.90
11025;DHT22;22890;51.820;8.682;2023-12-28T05:27:51;9.10;99.90
11025;DHT22;22890;51.820;8.682;2023-12-28T05:37:40;9.10;99.90
11025;DHT22;22890;51.820;8.682;2023-12-28T05:40:07;9.10;99.90
11025;DHT22;22890;51.820;8.682;2023-12-28T05:45:04;9.10;99.90
11025;DHT22;22890;51.820;8.682;2023-12-28T05:47:30;9.10;99.90
11025;DHT22;22890;51.820;8.682;2023-12-28T05:52:24;9.10;99.90
11025;DHT22;22890;51.820;8.682;2023-12-28T05:54:51;9.10;99.90
11025;DHT22;22890;51.820;8.682;2023-12-28T05:59:45;9.10;99.90
11025;DHT22;22890;51.820;8.682;2023-12-28T06:04:39;9.10;99.90
11025;DHT22;22890;51.820;8.682;2023-12-28T06:07:06;9.10;99.90
11025;DHT22;22890;51.820;8.682;2023-12-28T06:12:00;9.00;99.90
11025;DHT22;22890;51.820;8.682;2023-12-28T06:14:27;9.10;99.90
11025;DHT22;22890;51.820;8.682;2023-12-28T06:19:21;9.10;99.90
11025;DHT22;22890;51.820;8.682;2023-12-28T06:21:49;9.10;99.90
11025;DHT22;22890;51.820;8.682;2023-12-28T06:26:43;9.10;99.90
11025;DHT22;22890;51.820;8.682;2023-12-28T06:29:11;9.00;99.90
11025;DHT22;22890;51.820;8.682;2023-12-28T06:31:38;9.10;99.90
11025;DHT22;22890;51.820;8.682;2023-12-28T06:34:05;9.00;99.90
11025;DHT22;22890;51.820;8.682;2023-12-28T06:36:33;9.00;99.90
11025;DHT22;22890;51.820;8.682;2023-12-28T06:39:00;9.00;99.90
11025;DHT22;22890;51.820;8.682;2023-12-28T06:41:27;9.00;99.90
11025;DHT22;22890;51.820;8.682;2023-12-28T06:43:53;9.00;99.90
11025;DHT22;22890;51.820;8.682;2023-12-28T06:46:20;9.00;99.90
11025;DHT22;22890;51.820;8.682;2023-12-28T06:51:19;9.00;99.90
11025;DHT22;22890;51.820;8.682;2023-12-28T06:56:14;9.00;99.90
11025;DHT22;22890;51.820;8.682;2023-12-28T07:01:08;9.00;99.90
11025;DHT22;22890;51.820;8.682;2023-12-28T07:13:30;9.10;99.90
11025;DHT22;22890;51.820;8.682;2023-12-28T07:15:56;9.10;99.90
11025;DHT22;22890;51.820;8.682;2023-12-28T07:18:26;9.10;99.90
11025;DHT22;22890;51.820;8.682;2023-12-28T07:23:21;8.90;99.90
11025;DHT22;22890;51.820;8.682;2023-12-28T07:25:48;9.10;99.90
11025;DHT22;22890;51.820;8.682;2023-12-28T07:28:14;9.10;99.90
11025;DHT22;22890;51.820;8.682;2023-12-28T07:30:41;9.10;99.90
11025;DHT22;22890;51.820;8.682;2023-12-28T07:33:08;9.10;99.90
11025;DHT22;22890;51.820;8.682;2023-12-28T07:38:02;9.10;99.90
11025;DHT22;22890;51.820;8.682;2023-12-28T07:40:29;9.10;99.90
11025;DHT22;22890;51.820;8.682;2023-12-28T07:42:56;9.10;99.90
11025;DHT22;22890;51.820;8.682;2023-12-28T07:45:23;9.10;99.90
11025;DHT22;22890;51.820;8.682;2023-12-28T07:47:51;9.10;99.90
11025;DHT22;22890;51.820;8.682;2023-12-28T07:50:19;9.00;99.90
11025;DHT22;22890;51.820;8.682;2023-12-28T07:55:13;9.00;99.90
11025;DHT22;22890;51.820;8.682;2023-12-28T07:57:41;9.10;99.90
11025;DHT22;22890;51.820;8.682;2023-12-28T08:00:08;9.00;99.90
11025;DHT22;22890;51.820;8.682;2023-12-28T08:05:03;9.00;99.90
11025;DHT22;22890;51.820;8.682;2023-12-28T08:12:24;9.00;99.90
11025;DHT22;22890;51.820;8.682;2023-12-28T08:14:54;9.00;99.90
11025;DHT22;22890;51.820;8.682;2023-12-28T08:19:48;9.00;99.90
11025;DHT22;22890;51.820;8.682;2023-12-28T08:24:43;9.00;99.90
11025;DHT22;22890;51.820;8.682;2023-12-28T08:27:10;9.10;99.90
11025;DHT22;22890;51.820;8.682;2023-12-28T08:29:36;9.10;99.90
11025;DHT22;22890;51.820;8.682;2023-12-28T08:32:03;9.00;99.90
11025;DHT22;22890;51.820;8.682;2023-12-28T08:39:26;9.10;99.90
11025;DHT22;22890;51.820;8.682;2023-12-28T08:51:42;9.20;99.90
11025;DHT22;22890;51.820;8.682;2023-12-28T08:56:38;9.10;99.90
11025;DHT22;22890;51.820;8.682;2023-12-28T09:06:27;9.30;99.90
11025;DHT22;22890;51.820;8.682;2023-12-28T09:11:21;9.40;99.90
11025;DHT22;22890;51.820;8.682;2023-12-28T09:21:11;9.40;99.90
11025;DHT22;22890;51.820;8.682;2023-12-28T09:23:38;9.50;99.90
11025;DHT22;22890;51.820;8.682;2023-12-28T09:26:07;9.40;99.90
11025;DHT22;22890;51.820;8.682;2023-12-28T09:28:34;9.40;99.90
11025;DHT22;22890;51.820;8.682;2023-12-28T09:31:02;9.50;99.90
11025;DHT22;22890;51.820;8.682;2023-12-28T09:33:29;9.50;99.90
11025;DHT22;22890;51.820;8.682;2023-12-28T09:35:56;9.50;99.90
11025;DHT22;22890;51.820;8.682;2023-12-28T09:40:54;9.60;99.90
11025;DHT22;22890;51.820;8.682;2023-12-28T09:45:49;9.50;99.90
11025;DHT22;22890;51.820;8.682;2023-12-28T09:48:17;9.60;99.90
11025;DHT22;22890;51.820;8.682;2023-12-28T09:50:45;9.60;99.90
11025;DHT22;22890;51.820;8.682;2023-12-28T09:55:43;9.70;99.90
11025;DHT22;22890;51.820;8.682;2023-12-28T09:58:11;9.70;99.90
11025;DHT22;22890;51.820;8.682;2023-12-28T10:08:01;9.90;99.90
11025;DHT22;22890;51.820;8.682;2023-12-28T10:10:29;9.90;99.90
11025;DHT22;22890;51.820;8.682;2023-12-28T10:12:56;10.00;99.90
11025;DHT22;22890;51.820;8.682;2023-12-28T10:15:23;10.00;99.90
11025;DHT22;22890;51.820;8.682;2023-12-28T10:17:54;10.00;99.90
11025;DHT22;22890;51.820;8.682;2023-12-28T10:20:21;10.00;99.90
11025;DHT22;22890;51.820;8.682;2023-12-28T10:27:42;9.90;99.90
11025;DHT22;22890;51.820;8.682;2023-12-28T10:30:10;10.10;99.90
11025;DHT22;22890;51.820;8.682;2023-12-28T10:32:40;10.10;99.90
11025;DHT22;22890;51.820;8.682;2023-12-28T10:37:35;10.10;99.90
11025;DHT22;22890;51.820;8.682;2023-12-28T10:40:08;10.20;99.90
11025;DHT22;22890;51.820;8.682;2023-12-28T10:42:59;10.20;99.90
11025;DHT22;22890;51.820;8.682;2023-12-28T10:45:31;10.30;99.90
11025;DHT22;22890;51.820;8.682;2023-12-28T10:48:09;10.40;99.90
11025;DHT22;22890;51.820;8.682;2023-12-28T10:50:39;10.40;99.90
11025;DHT22;22890;51.820;8.682;2023-12-28T10:56:23;10.50;99.90
11025;DHT22;22890;51.820;8.682;2023-12-28T10:59:05;10.40;99.90
11025;DHT22;22890;51.820;8.682;2023-12-28T11:01:40;10.40;99.90
11025;DHT22;22890;51.820;8.682;2023-12-28T11:06:54;10.50;99.90
11025;DHT22;22890;51.820;8.682;2023-12-28T11:09:24;10.50;99.90
11025;DHT22;22890;51.820;8.682;2023-12-28T11:11:53;10.50;99.90
11025;DHT22;22890;51.820;8.682;2023-12-28T11:14:22;10.50;99.90
11025;DHT22;22890;51.820;8.682;2023-12-28T11:16:50;10.50;99.90
11025;DHT22;22890;51.820;8.682;2023-12-28T11:19:17;10.50;99.90
11025;DHT22;22890;51.820;8.682;2023-12-28T11:21:44;10.50;99.90
11025;DHT22;22890;51.820;8.682;2023-12-28T11:24:11;10.50;99.90
11025;DHT22;22890;51.820;8.682;2023-12-28T11:26:39;10.60;99.90
11025;DHT22;22890;51.820;8.682;2023-12-28T11:29:06;10.50;99.90
11025;DHT22;22890;51.820;8.682;2023-12-28T11:31:33;10.50;99.90
11025;DHT22;22890;51.820;8.682;2023-12-28T11:34:03;10.60;99.90
11025;DHT22;22890;51.820;8.682;2023-12-28T11:36:35;10.60;99.90
11025;DHT22;22890;51.820;8.682;2023-12-28T11:39:03;10.70;99.90
11025;DHT22;22890;51.820;8.682;2023-12-28T11:41:32;10.70;99.90
11025;DHT22;22890;51.820;8.682;2023-12-28T11:44:06;10.70;99.90
11025;DHT22;22890;51.820;8.682;2023-12-28T11:46:35;10.70;99.90
11025;DHT22;22890;51.820;8.682;2023-12-28T11:49:07;10.70;99.90
11025;DHT22;22890;51.820;8.682;2023-12-28T11:51:40;10.80;99.90
11025;DHT22;22890;51.820;8.682;2023-12-28T11:54:07;10.70;99.90
11025;DHT22;22890;51.820;8.682;2023-12-28T11:56:34;10.80;99.90
11025;DHT22;22890;51.820;8.682;2023-12-28T11:59:00;10.90;99.90
11025;DHT22;22890;51.820;8.682;2023-12-28T12:01:27;10.90;99.90
11025;DHT22;22890;51.820;8.682;2023-12-28T12:03:55;10.80;99.90
11025;DHT22;22890;51.820;8.682;2023-12-28T12:06:22;10.90;99.90
11025;DHT22;22890;51.820;8.682;2023-12-28T12:08:49;10.80;99.90
11025;DHT22;22890;51.820;8.682;2023-12-28T12:11:17;10.90;99.90
11025;DHT22;22890;51.820;8.682;2023-12-28T12:13:45;10.80;99.90
11025;DHT22;22890;51.820;8.682;2023-12-28T12:16:14;10.90;99.90
11025;DHT22;22890;51.820;8.682;2023-12-28T12:18:41;10.90;99.90
11025;DHT22;22890;51.820;8.682;2023-12-28T12:23:34;11.00;99.90
11025;DHT22;22890;51.820;8.682;2023-12-28T12:26:05;10.90;99.90
11025;DHT22;22890;51.820;8.682;2023-12-28T12:28:31;11.00;99.90
11025;DHT22;22890;51.820;8.682;2023-12-28T12:30:59;11.00;99.90
11025;DHT22;22890;51.820;8.682;2023-12-28T12:33:28;10.90;99.90
11025;DHT22;22890;51.820;8.682;2023-12-28T12:35:55;11.00;99.90
11025;DHT22;22890;51.820;8.682;2023-12-28T12:38:22;10.90;99.90
11025;DHT22;22890;51.820;8.682;2023-12-28T12:40:51;10.90;99.90
11025;DHT22;22890;51.820;8.682;2023-12-28T12:43:18;10.90;99.90
11025;DHT22;22890;51.820;8.682;2023-12-28T12:45:46;11.00;99.90
11025;DHT22;22890;51.820;8.682;2023-12-28T12:48:15;11.00;99.90
11025;DHT22;22890;51.820;8.682;2023-12-28T12:50:43;11.00;99.90
11025;DHT22;22890;51.820;8.682;2023-12-28T12:53:10;11.00;99.90
11025;DHT22;22890;51.820;8.682;2023-12-28T12:55:38;11.00;99.90
11025;DHT22;22890;51.820;8.682;2023-12-28T12:58:12;11.00;99.90
11025;DHT22;22890;51.820;8.682;2023-12-28T13:00:40;11.00;99.90
11025;DHT22;22890;51.820;8.682;2023-12-28T13:03:09;10.90;99.90
11025;DHT22;22890;51.820;8.682;2023-12-28T13:05:36;10.90;99.90
11025;DHT22;22890;51.820;8.682;2023-12-28T13:08:04;10.90;99.90
11025;DHT22;22890;51.820;8.682;2023-12-28T13:10:31;10.90;99.90
11025;DHT22;22890;51.820;8.682;2023-12-28T13:12:58;10.90;99.90
11025;DHT22;22890;51.820;8.682;2023-12-28T13:15:26;10.90;99.90
11025;DHT22;22890;51.820;8.682;2023-12-28T13:17:53;10.90;99.90
11025;DHT22;22890;51.820;8.682;2023-12-28T13:22:47;11.00;99.90
11025;DHT22;22890;51.820;8.682;2023-12-28T13:25:14;11.10;99.90
11025;DHT22;22890;51.820;8.682;2023-12-28T13:30:09;11.00;99.90
11025;DHT22;22890;51.820;8.682;2023-12-28T13:32:36;11.00;99.90
11025;DHT22;22890;51.820;8.682;2023-12-28T13:39:58;11.00;99.90
11025;DHT22;22890;51.820;8.682;2023-12-28T13:42:24;11.00;99.90
11025;DHT22;22890;51.820;8.682;2023-12-28T13:44:51;11.00;99.90
11025;DHT22;22890;51.820;8.682;2023-12-28T13:47:18;11.00;99.90
11025;DHT22;22890;51.820;8.682;2023-12-28T13:49:44;11.00;99.90
11025;DHT22;22890;51.820;8.682;2023-12-28T13:52:11;11.00;99.90
11025;DHT22;22890;51.820;8.682;2023-12-28T13:54:38;11.00;99.90
11025;DHT22;22890;51.820;8.682;2023-12-28T13:57:05;11.00;99.90
11025;DHT22;22890;51.820;8.682;2023-12-28T13:59:31;11.00;99.90
11025;DHT22;22890;51.820;8.682;2023-12-28T14:01:58;10.90;99.90
11025;DHT22;22890;51.820;8.682;2023-12-28T14:04:26;11.00;99.90
11025;DHT22;22890;51.820;8.682;2023-12-28T14:06:53;11.00;99.90
11025;DHT22;22890;51.820;8.682;2023-12-28T14:09:20;11.00;99.90
11025;DHT22;22890;51.820;8.682;2023-12-28T14:11:47;11.00;99.90
11025;DHT22;22890;51.820;8.682;2023-12-28T14:14:14;11.00;99.90
11025;DHT22;22890;51.820;8.682;2023-12-28T14:16:41;11.00;99.90
11025;DHT22;22890;51.820;8.682;2023-12-28T14:19:11;11.00;99.90
11025;DHT22;22890;51.820;8.682;2023-12-28T14:21:38;11.00;99.90
11025;DHT22;22890;51.820;8.682;2023-12-28T14:24:06;11.00;99.90
11025;DHT22;22890;51.820;8.682;2023-12-28T14:29:01;10.90;99.90
11025;DHT22;22890;51.820;8.682;2023-12-28T14:31:32;11.00;99.90
11025;DHT22;22890;51.820;8.682;2023-12-28T14:33:59;11.00;99.90
11025;DHT22;22890;51.820;8.682;2023-12-28T14:36:34;11.00;99.90
11025;DHT22;22890;51.820;8.682;2023-12-28T14:39:03;11.00;99.90
11025;DHT22;22890;51.820;8.682;2023-12-28T14:41:34;10.90;99.90
11025;DHT22;22890;51.820;8.682;2023-12-28T14:44:01;10.90;99.90
11025;DHT22;22890;51.820;8.682;2023-12-28T14:46:28;10.90;99.90
11025;DHT22;22890;51.820;8.682;2023-12-28T14:48:56;10.80;99.90
11025;DHT22;22890;51.820;8.682;2023-12-28T14:51:23;10.80;99.90
11025;DHT22;22890;51.820;8.682;2023-12-28T14:53:50;10.70;99.90
11025;DHT22;22890;51.820;8.682;2023-12-28T14:56:17;10.90;99.90
11025;DHT22;22890;51.820;8.682;2023-12-28T14:58:43;10.80;99.90
11025;DHT22;22890;51.820;8.682;2023-12-28T15:01:15;10.80;99.90
11025;DHT22;22890;51.820;8.682;2023-12-28T15:03:42;10.80;99.90
11025;DHT22;22890;51.820;8.682;2023-12-28T15:06:09;10.70;99.90
11025;DHT22;22890;51.820;8.682;2023-12-28T15:08:37;10.70;99.90
11025;DHT22;22890;51.820;8.682;2023-12-28T15:11:04;10.70;99.90
11025;DHT22;22890;51.820;8.682;2023-12-28T15:13:33;10.60;99.90
11025;DHT22;22890;51.820;8.682;2023-12-28T15:16:00;10.60;99.90
11025;DHT22;22890;51.820;8.682;2023-12-28T15:18:27;10.60;99.90
11025;DHT22;22890;51.820;8.682;2023-12-28T15:20:55;10.50;99.90
11025;DHT22;22890;51.820;8.682;2023-12-28T15:23:22;10.50;99.90
11025;DHT22;22890;51.820;8.682;2023-12-28T15:25:49;10.50;99.90
11025;DHT22;22890;51.820;8.682;2023-12-28T15:28:16;10.50;99.90
11025;DHT22;22890;51.820;8.682;2023-12-28T15:30:43;10.50;99.90
11025;DHT22;22890;51.820;8.682;2023-12-28T15:33:10;10.40;99.90
11025;DHT22;22890;51.820;8.682;2023-12-28T15:35:37;10.30;99.90
11025;DHT22;22890;51.820;8.682;2023-12-28T15:38:04;10.40;99.90
11025;DHT22;22890;51.820;8.682;2023-12-28T15:40:31;10.40;99.90
11025;DHT22;22890;51.820;8.682;2023-12-28T15:42:58;10.30;99.90
11025;DHT22;22890;51.820;8.682;2023-12-28T15:47:54;10.30;99.90
11025;DHT22;22890;51.820;8.682;2023-12-28T15:52:48;10.20;99.90
11025;DHT22;22890;51.820;8.682;2023-12-28T15:55:14;10.20;99.90
11025;DHT22;22890;51.820;8.682;2023-12-28T15:57:41;10.20;99.90
11025;DHT22;22890;51.820;8.682;2023-12-28T16:00:09;10.20;99.90
11025;DHT22;22890;51.820;8.682;2023-12-28T16:02:39;10.20;99.90
11025;DHT22;22890;51.820;8.682;2023-12-28T16:05:05;10.30;99.90
11025;DHT22;22890;51.820;8.682;2023-12-28T16:07:33;10.30;99.90
11025;DHT22;22890;51.820;8.682;2023-12-28T16:10:00;10.20;99.90
11025;DHT22;22890;51.820;8.682;2023-12-28T16:12:26;10.30;99.90
11025;DHT22;22890;51.820;8.682;2023-12-28T16:17:21;10.30;99.90
11025;DHT22;22890;51.820;8.682;2023-12-28T16:19:48;10.20;99.90
11025;DHT22;22890;51.820;8.682;2023-12-28T16:22:15;10.10;99.90
11025;DHT22;22890;51.820;8.682;2023-12-28T16:24:42;10.10;99.90
11025;DHT22;22890;51.820;8.682;2023-12-28T16:27:09;10.20;99.90
11025;DHT22;22890;51.820;8.682;2023-12-28T16:29:36;10.10;99.90
11025;DHT22;22890;51.820;8.682;2023-12-28T16:32:03;10.00;99.90
11025;DHT22;22890;51.820;8.682;2023-12-28T16:34:33;10.00;99.90
11025;DHT22;22890;51.820;8.682;2023-12-28T16:37:01;10.00;99.90
11025;DHT22;22890;51.820;8.682;2023-12-28T16:46:49;9.80;99.90
11025;DHT22;22890;51.820;8.682;2023-12-28T16:51:45;9.70;99.90
11025;DHT22;22890;51.820;8.682;2023-12-28T16:54:11;9.80;99.90
11025;DHT22;22890;51.820;8.682;2023-12-28T16:56:39;9.80;99.90
11025;DHT22;22890;51.820;8.682;2023-12-28T16:59:05;9.80;99.90
11025;DHT22;22890;51.820;8.682;2023-12-28T17:01:32;9.70;99.90
11025;DHT22;22890;51.820;8.682;2023-12-28T17:04:02;9.70;99.90
11025;DHT22;22890;51.820;8.682;2023-12-28T17:06:29;9.70;99.90
11025;DHT22;22890;51.820;8.682;2023-12-28T17:08:56;9.70;99.90
11025;DHT22;22890;51.820;8.682;2023-12-28T17:11:23;9.70;99.90
11025;DHT22;22890;51.820;8.682;2023-12-28T17:16:18;9.70;99.90
11025;DHT22;22890;51.820;8.682;2023-12-28T17:18:45;9.70;99.90
11025;DHT22;22890;51.820;8.682;2023-12-28T17:21:12;9.80;99.90
11025;DHT22;22890;51.820;8.682;2023-12-28T17:23:51;9.70;99.90
11025;DHT22;22890;51.820;8.682;2023-12-28T17:26:26;9.80;99.90
11025;DHT22;22890;51.820;8.682;2023-12-28T17:29:05;9.70;99.90
11025;DHT22;22890;51.820;8.682;2023-12-28T17:31:36;9.70;99.90
11025;DHT22;22890;51.820;8.682;2023-12-28T17:34:05;9.70;99.90
11025;DHT22;22890;51.820;8.682;2023-12-28T17:36:32;9.80;99.90
11025;DHT22;22890;51.820;8.682;2023-12-28T17:39:02;9.80;99.90
11025;DHT22;22890;51.820;8.682;2023-12-28T17:41:38;9.70;99.90
11025;DHT22;22890;51.820;8.682;2023-12-28T17:46:49;9.80;99.90
11025;DHT22;22890;51.820;8.682;2023-12-28T17:49:27;9.80;99.90
11025;DHT22;22890;51.820;8.682;2023-12-28T17:51:59;9.80;99.90
11025;DHT22;22890;51.820;8.682;2023-12-28T17:54:27;9.80;99.90
11025;DHT22;22890;51.820;8.682;2023-12-28T17:56:54;9.80;99.90
11025;DHT22;22890;51.820;8.682;2023-12-28T18:01:55;9.80;99.90
11025;DHT22;22890;51.820;8.682;2023-12-28T18:06:49;9.80;99.90
11025;DHT22;22890;51.820;8.682;2023-12-28T18:09:18;9.90;99.90
11025;DHT22;22890;51.820;8.682;2023-12-28T18:11:48;9.90;99.90
11025;DHT22;22890;51.820;8.682;2023-12-28T18:14:15;9.80;99.90
11025;DHT22;22890;51.820;8.682;2023-12-28T18:16:42;9.90;99.90
11025;DHT22;22890;51.820;8.682;2023-12-28T18:19:08;7.20;99.90
11025;DHT22;22890;51.820;8.682;2023-12-28T18:21:35;9.90;99.90
11025;DHT22;22890;51.820;8.682;2023-12-28T18:24:05;9.90;99.90
11025;DHT22;22890;51.820;8.682;2023-12-28T18:26:32;10.00;99.90
11025;DHT22;22890;51.820;8.682;2023-12-28T18:28:59;10.00;99.90
11025;DHT22;22890;51.820;8.682;2023-12-28T18:31:26;10.00;99.90
11025;DHT22;22890;51.820;8.682;2023-12-28T18:33:53;10.00;99.90
11025;DHT22;22890;51.820;8.682;2023-12-28T18:36:20;10.00;99.90
11025;DHT22;22890;51.820;8.682;2023-12-28T18:38:47;10.00;99.90
11025;DHT22;22890;51.820;8.682;2023-12-28T18:41:13;10.00;99.90
11025;DHT22;22890;51.820;8.682;2023-12-28T18:43:40;9.90;99.90
11025;DHT22;22890;51.820;8.682;2023-12-28T18:46:07;10.00;99.90
11025;DHT22;22890;51.820;8.682;2023-12-28T18:48:34;10.10;99.90
11025;DHT22;22890;51.820;8.682;2023-12-28T18:51:00;10.10;99.90
11025;DHT22;22890;51.820;8.682;2023-12-28T18:53:27;10.10;99.90
11025;DHT22;22890;51.820;8.682;2023-12-28T18:55:54;10.10;99.90
11025;DHT22;22890;51.820;8.682;2023-12-28T18:58:21;10.10;99.90
11025;DHT22;22890;51.820;8.682;2023-12-28T19:00:47;10.00;99.90
11025;DHT22;22890;51.820;8.682;2023-12-28T19:03:14;9.90;99.90
11025;DHT22;22890;51.820;8.682;2023-12-28T19:05:41;10.00;99.90
11025;DHT22;22890;51.820;8.682;2023-12-28T19:08:08;10.00;99.90
11025;DHT22;22890;51.820;8.682;2023-12-28T19:10:35;10.00;99.90
11025;DHT22;22890;51.820;8.682;2023-12-28T19:13:02;10.00;99.90
11025;DHT22;22890;51.820;8.682;2023-12-28T19:15:29;10.00;99.90
11025;DHT22;22890;51.820;8.682;2023-12-28T19:17:55;9.90;99.90
11025;DHT22;22890;51.820;8.682;2023-12-28T19:20:22;9.90;99.90
11025;DHT22;22890;51.820;8.682;2023-12-28T19:22:49;9.90;99.90
11025;DHT22;22890;51.820;8.682;2023-12-28T19:25:15;9.90;99.90
11025;DHT22;22890;51.820;8.682;2023-12-28T19:27:44;9.90;99.90
11025;DHT22;22890;51.820;8.682;2023-12-28T19:30:11;9.90;99.90
11025;DHT22;22890;51.820;8.682;2023-12-28T19:32:38;9.80;99.90
11025;DHT22;22890;51.820;8.682;2023-12-28T19:35:05;9.80;99.90
11025;DHT22;22890;51.820;8.682;2023-12-28T19:37:32;9.80;99.90
11025;DHT22;22890;51.820;8.682;2023-12-28T19:39:59;9.80;99.90
11025;DHT22;22890;51.820;8.682;2023-12-28T19:47:22;9.70;99.90
11025;DHT22;22890;51.820;8.682;2023-12-28T19:57:13;9.70;99.90
11025;DHT22;22890;51.820;8.682;2023-12-28T19:59:40;9.80;99.90
11025;DHT22;22890;51.820;8.682;2023-12-28T20:04:35;9.70;99.90
11025;DHT22;22890;51.820;8.682;2023-12-28T20:07:03;9.80;99.90
11025;DHT22;22890;51.820;8.682;2023-12-28T20:09:29;9.70;99.90
11025;DHT22;22890;51.820;8.682;2023-12-28T20:11:56;9.70;99.90
11025;DHT22;22890;51.820;8.682;2023-12-28T20:14:23;9.70;99.90
11025;DHT22;22890;51.820;8.682;2023-12-28T20:16:49;9.70;99.90